Ship Status Report: callsign AMOUK35

sailwx.info

Track history (hours):
 
Tides and Currents Weather Stations Pressure Air Temp Water Temp Dewpoint Dewpoint Depression Visibility Wind Speed Wind Dir Waves Ship Positions

Callsign AMOUK35 (name unknown)

Last reported at 2016-Sep-26 02:00 UTC. Time now 2016-Sep-26 03:40 UTC.
Position N 55°54' W 004°24'.

Barometer 1014.9 mb
Air temperature 8.1 ° C

Date/timePositionNaut miles runAvg speedWind from/ knotsBaromVisibWave heightAir tempDewpointWater temp
2016-Sep-26 02:00N 55°54' W 004°24'0 0.0 1014.9 8.1
2016-Sep-26 01:00N 55°54' W 004°24'0 0.0 1014.3 8.3
2016-Sep-26 00:00N 55°54' W 004°24'0 0.0 1013.9 8.9
2016-Sep-25 23:00N 55°54' W 004°24'0 0.0 1013.5 9.4
2016-Sep-25 22:00N 55°54' W 004°24'0 0.0 1012.7 9.8
2016-Sep-25 21:00N 55°54' W 004°24'0 0.0 1011.6 9.9
2016-Sep-25 20:00N 55°54' W 004°24'0 0.0 1010.8 10.5
2016-Sep-25 19:00N 55°54' W 004°24'0 0.0 1010.0 10.9
2016-Sep-25 18:00N 55°54' W 004°24'0 0.0 1008.9 11.7
2016-Sep-25 17:00N 55°54' W 004°24'0 0.0 1008.1 11.7
2016-Sep-25 16:00N 55°54' W 004°24'0 0.0 1007.8 11.8
2016-Sep-25 15:00N 55°54' W 004°24'0 0.0 1007.2 12.5
2016-Sep-25 14:00N 55°54' W 004°24'0 0.0 1006.6 13.9
2016-Sep-25 13:00N 55°54' W 004°24'0 0.0 1006.6 13.3
2016-Sep-25 12:00N 55°54' W 004°24'0 0.0 1005.6 13.3
2016-Sep-25 11:00N 55°54' W 004°24'0 0.0 1005.4 12.8
2016-Sep-25 10:00N 55°54' W 004°24'0 0.0 1004.6 12.9
2016-Sep-25 09:00N 55°54' W 004°24'0 0.0 1004.0 12.4
2016-Sep-25 08:00N 55°54' W 004°24'0 0.0 1003.6 12.1
2016-Sep-25 07:00N 55°54' W 004°24'0 0.0 1003.0 12.3
2016-Sep-25 06:00N 55°54' W 004°24'0 0.0 1002.1 12.5
2016-Sep-25 05:00N 55°54' W 004°24'0 0.0 1001.3 13.5
2016-Sep-25 04:00N 55°54' W 004°24'0 0.0 1001.2 14.2
2016-Sep-25 03:00N 55°54' W 004°24'0 0.0 1001.4 14.5
2016-Sep-25 02:00N 55°54' W 004°24'0 0.0 1001.2 14.8
2016-Sep-25 01:00N 55°54' W 004°24'0 0.0 1001.3 14.2
2016-Sep-25 00:00N 55°54' W 004°24'0 0.0 1001.5 14.4
2016-Sep-24 23:00N 55°54' W 004°24'0 0.0 1002.2 15.0
2016-Sep-24 22:00N 55°54' W 004°24'0 0.0 1002.4 15.4
2016-Sep-24 21:00N 55°54' W 004°24'0 0.0 1001.9 15.4
2016-Sep-24 20:00N 55°54' W 004°24'0 0.0 1001.9 15.6
2016-Sep-24 19:00N 55°54' W 004°24'0 0.0 1002.0 15.7
2016-Sep-24 18:00N 55°54' W 004°24'0 0.0 1002.1 15.8
2016-Sep-24 17:00N 55°54' W 004°24'0 0.0 1002.1 15.9
2016-Sep-24 16:00N 55°54' W 004°24'0 0.0 1002.7 16.1
2016-Sep-24 15:00N 55°54' W 004°24'0 0.0 1003.3 16.1
2016-Sep-24 14:00N 55°54' W 004°24'0 0.0 1003.6 16.3
2016-Sep-24 13:00N 55°54' W 004°24'0 0.0 1003.5 15.9
2016-Sep-24 12:00N 55°54' W 004°24'0 0.0 1003.8 16.1
2016-Sep-24 11:00N 55°54' W 004°24'0 0.0 1004.5 16.3
2016-Sep-24 10:00N 55°54' W 004°24'0 0.0 1004.6 16.0
2016-Sep-24 09:00N 55°54' W 004°24'0 0.0 1004.8 15.7
2016-Sep-24 06:00N 55°54' W 004°24'0 0.0 1005.1 16.8
2016-Sep-24 05:00N 55°54' W 004°24'0 0.0 1005.8 16.3
2016-Sep-24 04:00N 55°54' W 004°24'0 0.0 1006.7 15.4
2016-Sep-24 03:00N 55°54' W 004°24'0 0.0 1007.7 15.2
2016-Sep-24 02:00N 55°54' W 004°24'0 0.0 1008.7 14.6
2016-Sep-24 01:00N 55°54' W 004°24'0 0.0 1010.0 14.2
2016-Sep-24 00:00N 55°54' W 004°24'0 0.0 1011.0 14.2
2016-Sep-23 23:00N 55°54' W 004°24'0 0.0 1011.4 14.5
2016-Sep-23 22:00N 55°54' W 004°24'0 0.0 1011.8 14.5
2016-Sep-23 21:00N 55°54' W 004°24'0 0.0 1012.2 14.8
2016-Sep-23 20:00N 55°54' W 004°24'0 0.0 1012.6 14.2
2016-Sep-23 19:00N 55°54' W 004°24'0 0.0 1013.0 15.2
2016-Sep-23 18:00N 55°54' W 004°24'0 0.0 1012.9 15.4
2016-Sep-23 17:00N 55°54' W 004°24'0 0.0 1013.3 15.0
2016-Sep-23 16:00N 55°54' W 004°24'0 0.0 1014.9 15.2
2016-Sep-23 15:00N 55°54' W 004°24'0 0.0 1015.9 15.2
2016-Sep-23 14:00N 55°54' W 004°24'0 0.0 1016.8 14.8
2016-Sep-23 13:00N 55°54' W 004°24'0 0.0 1017.3 14.5
2016-Sep-23 12:00N 55°54' W 004°24'0 0.0 1018.2 14.1
2016-Sep-23 11:00N 55°54' W 004°24'0 0.0 1018.7 13.6
2016-Sep-23 10:00N 55°54' W 004°24'0 0.0 1019.1 12.6
2016-Sep-23 09:00N 55°54' W 004°24'0 0.0 1018.9 11.4
2016-Sep-23 08:00N 55°54' W 004°24'0 0.0 1019.0 10.5
2016-Sep-23 07:00N 55°54' W 004°24'0 0.0 1018.5 8.8
2016-Sep-23 06:00N 55°54' W 004°24'0 0.0 1018.0 8.7
2016-Sep-23 05:00N 55°54' W 004°24'0 0.0 1017.0 9.3
2016-Sep-23 03:00N 55°54' W 004°24'0 0.0 1016.6 10.0
2016-Sep-23 02:00N 55°54' W 004°24'0 0.0 1016.5 10.3
2016-Sep-23 01:00N 55°54' W 004°24'0 0.0 1015.9 10.2
2016-Sep-23 00:00N 55°54' W 004°24'0 0.0 1015.6 10.8
2016-Sep-22 23:00N 55°54' W 004°24'0 0.0 1015.3 11.3
2016-Sep-22 22:00N 55°54' W 004°24'0 0.0 1014.9 10.9
2016-Sep-22 21:00N 55°54' W 004°24'0 0.0 1014.9 10.9
2016-Sep-22 20:00N 55°54' W 004°24'0 0.0 1014.1 13.0
2016-Sep-22 19:00N 55°54' W 004°24'0 0.0 1014.1 13.1
2016-Sep-22 18:00N 55°54' W 004°24'0 0.0 1014.3 13.6
2016-Sep-22 17:00N 55°54' W 004°24'0 0.0 1014.2 14.2
2016-Sep-22 16:00N 55°54' W 004°24'0 0.0 1014.3 14.5
2016-Sep-22 15:00N 55°54' W 004°24'0 0.0 1014.5 15.0
2016-Sep-22 12:00N 55°54' W 004°24'0 0.0 1015.5 14.4
2016-Sep-22 11:00N 55°54' W 004°24'0 0.0 1015.8 13.6
2016-Sep-22 10:00N 55°54' W 004°24'0 0.0 1015.7 12.8
2016-Sep-22 08:00N 55°54' W 004°24'0 0.0 1015.1 10.8
2016-Sep-22 07:00N 55°54' W 004°24'0 0.0 1014.6 9.9
2016-Sep-22 06:00N 55°54' W 004°24'0 0.0 1013.7 9.8
2016-Sep-22 05:00N 55°54' W 004°24'0 0.0 1013.3 10.5
2016-Sep-22 04:00N 55°54' W 004°24'0 0.0 1013.2 10.4
2016-Sep-22 03:00N 55°54' W 004°24'0 0.0 1013.2 10.6
2016-Sep-22 02:00N 55°54' W 004°24'0 0.0 1013.4 10.6
2016-Sep-22 01:00N 55°54' W 004°24'0 0.0 1013.3 10.8
2016-Sep-22 00:00N 55°54' W 004°24'0 0.0 1013.7 11.2
2016-Sep-21 23:00N 55°54' W 004°24'0 0.0 1013.7 11.4
2016-Sep-21 22:00N 55°54' W 004°24'0 0.0 1013.3 13.0
2016-Sep-21 21:00N 55°54' W 004°24'0 0.0 1013.0 13.5
2016-Sep-21 20:00N 55°54' W 004°24'0 0.0 1013.0 13.6
2016-Sep-21 19:00N 55°54' W 004°24'0 0.0 1012.5 13.9
2016-Sep-21 18:00N 55°54' W 004°24'0 0.0 1012.1 14.5
2016-Sep-21 17:00N 55°54' W 004°24'0 0.0 1011.7 14.6
2016-Sep-21 16:00N 55°54' W 004°24'0 0.0 1011.7 15.2
2016-Sep-21 15:00N 55°54' W 004°24'0 0.0 1012.0 16.4
2016-Sep-21 14:00N 55°54' W 004°24'0 0.0 1012.4 16.2
2016-Sep-21 12:00N 55°54' W 004°24'0 0.0 1013.2 15.9
2016-Sep-21 11:00N 55°54' W 004°24'0 0.0 1013.6 15.3
2016-Sep-21 10:00N 55°54' W 004°24'0 0.0 1014.2 14.6
2016-Sep-21 09:00N 55°54' W 004°24'0 0.0 1014.9 13.0
2016-Sep-21 08:00N 55°54' W 004°24'0 0.0 1015.0 11.4
2016-Sep-21 07:00N 55°54' W 004°24'0 0.0 1015.2 10.3
2016-Sep-21 06:00N 55°54' W 004°24'0 0.0 1015.2 9.9
2016-Sep-21 05:00N 55°54' W 004°24'0 0.0 1015.4 9.6
2016-Sep-21 04:00N 55°54' W 004°24'0 0.0 1016.1 9.5
2016-Sep-21 03:00N 55°54' W 004°24'0 0.0 1016.9 9.0
2016-Sep-21 02:00N 55°54' W 004°24'0 0.0 1017.4 8.4
2016-Sep-21 01:00N 55°54' W 004°24'0 0.0 1017.4 9.1
2016-Sep-21 00:00N 55°54' W 004°24'0 0.0 1018.0 9.5
2016-Sep-20 23:00N 55°54' W 004°24'0 0.0 1018.8 9.4
2016-Sep-20 22:00N 55°54' W 004°24'0 0.0 1019.0 10.3
2016-Sep-20 21:00N 55°54' W 004°24'0 0.0 1019.3 11.5
2016-Sep-20 20:00N 55°54' W 004°24'0 0.0 1019.3 12.2
2016-Sep-20 19:00N 55°54' W 004°24'0 0.0 1019.3 13.5
2016-Sep-20 18:00N 55°54' W 004°24'0 0.0 1019.1 14.1
2016-Sep-20 17:00N 55°54' W 004°24'0 0.0 1019.1 15.0
2016-Sep-20 16:00N 55°54' W 004°24'0 0.0 1019.1 14.9
2016-Sep-20 15:00N 55°54' W 004°24'0 0.0 1019.5 14.7
2016-Sep-20 14:00N 55°54' W 004°24'0 0.0 1020.0 15.0
2016-Sep-20 13:00N 55°54' W 004°24'0 0.0 1020.2 15.3
2016-Sep-20 12:00N 55°54' W 004°24'0 0.0 1020.7 14.5
2016-Sep-20 11:00N 55°54' W 004°24'0 0.0 1021.1 14.6
2016-Sep-20 10:00N 55°54' W 004°24'0 0.0 1021.5 14.0
2016-Sep-20 09:00N 55°54' W 004°24'0 0.0 1021.7 13.2
2016-Sep-20 08:00N 55°54' W 004°24'0 0.0 1021.6 13.3
2016-Sep-20 07:00N 55°54' W 004°24'0 0.0 1021.6 10.5
2016-Sep-20 06:00N 55°54' W 004°24'0 0.0 1021.4 10.3
2016-Sep-20 05:00N 55°54' W 004°24'0 0.0 1021.6 11.1
2016-Sep-20 04:00N 55°54' W 004°24'0 0.0 1021.5 11.8
2016-Sep-20 03:00N 55°54' W 004°24'0 0.0 1021.7 12.3
2016-Sep-20 02:00N 55°54' W 004°24'0 0.0 1022.1 12.3
2016-Sep-20 01:00N 55°54' W 004°24'0 0.0 1022.5 12.4
2016-Sep-20 00:00N 55°54' W 004°24'0 0.0 1022.9 12.7
2016-Sep-19 23:00N 55°54' W 004°24'0 0.0 1023.3 12.8
2016-Sep-19 22:00N 55°54' W 004°24'0 0.0 1023.5 12.9
2016-Sep-19 21:00N 55°54' W 004°24'0 0.0 1023.8 13.5
2016-Sep-19 20:00N 55°54' W 004°24'0 0.0 1024.2 13.6
2016-Sep-19 19:00N 55°54' W 004°24'0 0.0 1023.9 14.3
2016-Sep-19 18:00N 55°54' W 004°24'0 0.0 1023.6 14.3
2016-Sep-19 17:00N 55°54' W 004°24'0 0.0 1023.5 14.9
2016-Sep-19 16:00N 55°54' W 004°24'0 0.0 1023.4 15.4
2016-Sep-19 15:00N 55°54' W 004°24'0 0.0 1023.7 15.2
2016-Sep-19 14:00N 55°54' W 004°24'0 0.0 1023.9 15.7
2016-Sep-19 13:00N 55°54' W 004°24'0 0.0 1024.2 15.5
2016-Sep-19 12:00N 55°54' W 004°24'0 0.0 1024.7 13.8
2016-Sep-19 11:00N 55°54' W 004°24'0 0.0 1024.6 14.5
2016-Sep-19 10:00N 55°54' W 004°24'0 0.0 1024.7 14.7
2016-Sep-19 09:00N 55°54' W 004°24'0 0.0 1024.6 13.9
2016-Sep-19 08:00N 55°54' W 004°24'0 0.0 1024.3 12.2
2016-Sep-19 07:00N 55°54' W 004°24'0 0.0 1023.9 11.9
2016-Sep-19 06:00N 55°54' W 004°24'0 0.0 1023.4 11.5
2016-Sep-19 05:00N 55°54' W 004°24'0 0.0 1023.0 11.6
2016-Sep-19 04:00N 55°54' W 004°24'0 0.0 1022.7 11.6
2016-Sep-19 03:00N 55°54' W 004°24'0 0.0 1022.3 11.8
2016-Sep-19 02:00N 55°54' W 004°24'0 0.0 1022.1 11.8
2016-Sep-19 01:00N 55°54' W 004°24'0 0.0 1021.8 11.7
2016-Sep-19 00:00N 55°54' W 004°24'0 0.0 1021.5 12.0
2016-Sep-18 23:00N 55°54' W 004°24'0 0.0 1021.0 12.2
2016-Sep-18 22:00N 55°54' W 004°24'0 0.0 1020.5 12.6
2016-Sep-18 21:00N 55°54' W 004°24'0 0.0 1020.5 13.0
2016-Sep-18 20:00N 55°54' W 004°24'0 0.0 1020.3 13.4
2016-Sep-18 19:00N 55°54' W 004°24'0 0.0 1019.7 13.8
2016-Sep-18 18:00N 55°54' W 004°24'0 0.0 1019.1 14.0
2016-Sep-18 17:00N 55°54' W 004°24'0 0.0 1018.7 14.1
2016-Sep-18 16:00N 55°54' W 004°24'0 0.0 1018.5 14.2
2016-Sep-18 15:00N 55°54' W 004°24'0 0.0 1018.4 14.2
2016-Sep-18 14:00N 55°54' W 004°24'0 0.0 1018.4 14.4
2016-Sep-18 13:00N 55°54' W 004°24'0 0.0 1018.4 15.0
2016-Sep-18 12:00N 55°54' W 004°24'0 0.0 1018.3 16.0
2016-Sep-18 11:00N 55°54' W 004°24'0 0.0 1018.6 15.6
2016-Sep-18 10:00N 55°54' W 004°24'0 0.0 1019.1 14.7
2016-Sep-18 09:00N 55°54' W 004°24'0 0.0 1019.3 14.2
2016-Sep-18 08:00N 55°54' W 004°24'0 0.0 1019.6 13.3
2016-Sep-18 07:00N 55°54' W 004°24'0 0.0 1019.9 13.0
2016-Sep-18 06:00N 55°54' W 004°24'0 0.0 1019.9 12.7
2016-Sep-18 05:00N 55°54' W 004°24'0 0.0 1020.1 12.4
2016-Sep-18 04:00N 55°54' W 004°24'0 0.0 1020.2 12.4
2016-Sep-18 03:00N 55°54' W 004°24'0 0.0 1020.6 12.5
2016-Sep-18 02:00N 55°54' W 004°24'0 0.0 1021.1 12.2
2016-Sep-18 01:00N 55°54' W 004°24'0 0.0 1021.5 11.9
2016-Sep-18 00:00N 55°54' W 004°24'0 0.0 1022.1 11.5
2016-Sep-17 23:00N 55°54' W 004°24'0 0.0 1022.1 11.3
2016-Sep-17 22:00N 55°54' W 004°24'0 0.0 1022.1 11.8
2016-Sep-17 21:00N 55°54' W 004°24'0 0.0 1022.7 12.6
2016-Sep-17 20:00N 55°54' W 004°24'0 0.0 1023.0 12.9
2016-Sep-17 19:00N 55°54' W 004°24'0 0.0 1022.8 14.3
2016-Sep-17 18:00N 55°54' W 004°24'0 0.0 1022.4 15.7
2016-Sep-17 17:00N 55°54' W 004°24'0 0.0 1022.4 16.2
2016-Sep-17 16:00N 55°54' W 004°24'0 0.0 1022.4 16.5
2016-Sep-17 15:00N 55°54' W 004°24'0 0.0 1022.5 16.9
2016-Sep-17 14:00N 55°54' W 004°24'0 0.0 1022.7 17.0
2016-Sep-17 13:00N 55°54' W 004°24'0 0.0 1023.2 16.1
2016-Sep-17 12:00N 55°54' W 004°24'0 0.0 1023.5 15.2
2016-Sep-17 11:00N 55°54' W 004°24'0 0.0 1023.6 15.1
2016-Sep-17 10:00N 55°54' W 004°24'0 0.0 1023.6 13.8
2016-Sep-17 09:00N 55°54' W 004°24'0 0.0 1023.5 13.0
2016-Sep-17 08:00N 55°54' W 004°24'0 0.0 1023.4 11.7
2016-Sep-17 07:00N 55°54' W 004°24'0 0.0 1023.6 10.9
2016-Sep-17 06:00N 55°54' W 004°24'0 0.0 1023.4 9.8
2016-Sep-17 05:00N 55°54' W 004°24'0 0.0 1023.0 10.1
2016-Sep-17 04:00N 55°54' W 004°24'0 0.0 1022.5 9.9
2016-Sep-17 03:00N 55°54' W 004°24'0 0.0 1022.3 10.1
2016-Sep-17 02:00N 55°54' W 004°24'0 0.0 1021.9 11.0
2016-Sep-17 01:00N 55°54' W 004°24'0 0.0 1021.6 11.5
2016-Sep-17 00:00N 55°54' W 004°24'0 0.0 1020.9 11.7
2016-Sep-16 23:00N 55°54' W 004°24'0 0.0 1020.8 11.4
2016-Sep-16 22:00N 55°54' W 004°24'0 0.0 1020.3 12.1
2016-Sep-16 21:00N 55°54' W 004°24'0 0.0 1019.6 12.4
2016-Sep-16 20:00N 55°54' W 004°24'0 0.0 1019.5 12.7
2016-Sep-16 19:00N 55°54' W 004°24'0 0.0 1018.7 13.6
2016-Sep-16 18:00N 55°54' W 004°24'0 0.0 1018.1 14.7
2016-Sep-16 17:00N 55°54' W 004°24'0 0.0 1017.2 14.8
2016-Sep-16 16:00N 55°54' W 004°24'0 0.0 1016.5 16.0
2016-Sep-16 15:00N 55°54' W 004°24'0 0.0 1015.7 15.9
2016-Sep-16 14:00N 55°54' W 004°24'0 0.0 1015.2 16.2
2016-Sep-16 13:00N 55°54' W 004°24'0 0.0 1014.6 15.8
2016-Sep-16 12:00N 55°54' W 004°24'0 0.0 1014.3 16.0
2016-Sep-16 11:00N 55°54' W 004°24'0 0.0 1014.0 15.0
2016-Sep-16 10:00N 55°54' W 004°24'0 0.0 1013.6 14.5
2016-Sep-16 09:00N 55°54' W 004°24'0 0.0 1013.2 13.8
2016-Sep-16 08:00N 55°54' W 004°24'0 0.0 1013.4 12.6
2016-Sep-16 07:00N 55°54' W 004°24'0 0.0 1013.0 11.8
2016-Sep-16 06:00N 55°54' W 004°24'0 0.0 1012.5 12.0
2016-Sep-16 05:00N 55°54' W 004°24'0 0.0 1012.1 12.5
2016-Sep-16 03:00N 55°54' W 004°24'0 0.0 1011.3 13.0
2016-Sep-16 02:00N 55°54' W 004°24'   1011.2 12.8
Track history (hours):
 
Tides and Currents Weather Stations Pressure Air Temp Water Temp Dewpoint Dewpoint Depression Visibility Wind Speed Wind Dir Waves Ship Positions

Callsign AMOUK35 (name unknown)

Last reported at 2016-Sep-26 02:00 UTC. Time now 2016-Sep-26 03:40 UTC.
Position N 55°54' W 004°24'.

Barometer 1014.9 mb
Air temperature 8.1 ° C

Date/timePositionNaut miles runAvg speedWind from/ knotsBaromVisibWave heightAir tempDewpointWater temp
2016-Sep-26 02:00N 55°54' W 004°24'0 0.0 1014.9 8.1
2016-Sep-26 01:00N 55°54' W 004°24'0 0.0 1014.3 8.3
2016-Sep-26 00:00N 55°54' W 004°24'0 0.0 1013.9 8.9
2016-Sep-25 23:00N 55°54' W 004°24'0 0.0 1013.5 9.4
2016-Sep-25 22:00N 55°54' W 004°24'0 0.0 1012.7 9.8
2016-Sep-25 21:00N 55°54' W 004°24'0 0.0 1011.6 9.9
2016-Sep-25 20:00N 55°54' W 004°24'0 0.0 1010.8 10.5
2016-Sep-25 19:00N 55°54' W 004°24'0 0.0 1010.0 10.9
2016-Sep-25 18:00N 55°54' W 004°24'0 0.0 1008.9 11.7
2016-Sep-25 17:00N 55°54' W 004°24'0 0.0 1008.1 11.7
2016-Sep-25 16:00N 55°54' W 004°24'0 0.0 1007.8 11.8
2016-Sep-25 15:00N 55°54' W 004°24'0 0.0 1007.2 12.5
2016-Sep-25 14:00N 55°54' W 004°24'0 0.0 1006.6 13.9
2016-Sep-25 13:00N 55°54' W 004°24'0 0.0 1006.6 13.3
2016-Sep-25 12:00N 55°54' W 004°24'0 0.0 1005.6 13.3
2016-Sep-25 11:00N 55°54' W 004°24'0 0.0 1005.4 12.8
2016-Sep-25 10:00N 55°54' W 004°24'0 0.0 1004.6 12.9
2016-Sep-25 09:00N 55°54' W 004°24'0 0.0 1004.0 12.4
2016-Sep-25 08:00N 55°54' W 004°24'0 0.0 1003.6 12.1
2016-Sep-25 07:00N 55°54' W 004°24'0 0.0 1003.0 12.3
2016-Sep-25 06:00N 55°54' W 004°24'0 0.0 1002.1 12.5
2016-Sep-25 05:00N 55°54' W 004°24'0 0.0 1001.3 13.5
2016-Sep-25 04:00N 55°54' W 004°24'0 0.0 1001.2 14.2
2016-Sep-25 03:00N 55°54' W 004°24'0 0.0 1001.4 14.5
2016-Sep-25 02:00N 55°54' W 004°24'0 0.0 1001.2 14.8
2016-Sep-25 01:00N 55°54' W 004°24'0 0.0 1001.3 14.2
2016-Sep-25 00:00N 55°54' W 004°24'0 0.0 1001.5 14.4
2016-Sep-24 23:00N 55°54' W 004°24'0 0.0 1002.2 15.0
2016-Sep-24 22:00N 55°54' W 004°24'0 0.0 1002.4 15.4
2016-Sep-24 21:00N 55°54' W 004°24'0 0.0 1001.9 15.4
2016-Sep-24 20:00N 55°54' W 004°24'0 0.0 1001.9 15.6
2016-Sep-24 19:00N 55°54' W 004°24'0 0.0 1002.0 15.7
2016-Sep-24 18:00N 55°54' W 004°24'0 0.0 1002.1 15.8
2016-Sep-24 17:00N 55°54' W 004°24'0 0.0 1002.1 15.9
2016-Sep-24 16:00N 55°54' W 004°24'0 0.0 1002.7 16.1
2016-Sep-24 15:00N 55°54' W 004°24'0 0.0 1003.3 16.1
2016-Sep-24 14:00N 55°54' W 004°24'0 0.0 1003.6 16.3
2016-Sep-24 13:00N 55°54' W 004°24'0 0.0 1003.5 15.9
2016-Sep-24 12:00N 55°54' W 004°24'0 0.0 1003.8 16.1
2016-Sep-24 11:00N 55°54' W 004°24'0 0.0 1004.5 16.3
2016-Sep-24 10:00N 55°54' W 004°24'0 0.0 1004.6 16.0
2016-Sep-24 09:00N 55°54' W 004°24'0 0.0 1004.8 15.7
2016-Sep-24 06:00N 55°54' W 004°24'0 0.0 1005.1 16.8
2016-Sep-24 05:00N 55°54' W 004°24'0 0.0 1005.8 16.3
2016-Sep-24 04:00N 55°54' W 004°24'0 0.0 1006.7 15.4
2016-Sep-24 03:00N 55°54' W 004°24'0 0.0 1007.7 15.2
2016-Sep-24 02:00N 55°54' W 004°24'0 0.0 1008.7 14.6
2016-Sep-24 01:00N 55°54' W 004°24'0 0.0 1010.0 14.2
2016-Sep-24 00:00N 55°54' W 004°24'0 0.0 1011.0 14.2
2016-Sep-23 23:00N 55°54' W 004°24'0 0.0 1011.4 14.5
2016-Sep-23 22:00N 55°54' W 004°24'0 0.0 1011.8 14.5
2016-Sep-23 21:00N 55°54' W 004°24'0 0.0 1012.2 14.8
2016-Sep-23 20:00N 55°54' W 004°24'0 0.0 1012.6 14.2
2016-Sep-23 19:00N 55°54' W 004°24'0 0.0 1013.0 15.2
2016-Sep-23 18:00N 55°54' W 004°24'0 0.0 1012.9 15.4
2016-Sep-23 17:00N 55°54' W 004°24'0 0.0 1013.3 15.0
2016-Sep-23 16:00N 55°54' W 004°24'0 0.0 1014.9 15.2
2016-Sep-23 15:00N 55°54' W 004°24'0 0.0 1015.9 15.2
2016-Sep-23 14:00N 55°54' W 004°24'0 0.0 1016.8 14.8
2016-Sep-23 13:00N 55°54' W 004°24'0 0.0 1017.3 14.5
2016-Sep-23 12:00N 55°54' W 004°24'0 0.0 1018.2 14.1
2016-Sep-23 11:00N 55°54' W 004°24'0 0.0 1018.7 13.6
2016-Sep-23 10:00N 55°54' W 004°24'0 0.0 1019.1 12.6
2016-Sep-23 09:00N 55°54' W 004°24'0 0.0 1018.9 11.4
2016-Sep-23 08:00N 55°54' W 004°24'0 0.0 1019.0 10.5
2016-Sep-23 07:00N 55°54' W 004°24'0 0.0 1018.5 8.8
2016-Sep-23 06:00N 55°54' W 004°24'0 0.0 1018.0 8.7
2016-Sep-23 05:00N 55°54' W 004°24'0 0.0 1017.0 9.3
2016-Sep-23 03:00N 55°54' W 004°24'0 0.0 1016.6 10.0
2016-Sep-23 02:00N 55°54' W 004°24'0 0.0 1016.5 10.3
2016-Sep-23 01:00N 55°54' W 004°24'0 0.0 1015.9 10.2
2016-Sep-23 00:00N 55°54' W 004°24'0 0.0 1015.6 10.8
2016-Sep-22 23:00N 55°54' W 004°24'0 0.0 1015.3 11.3
2016-Sep-22 22:00N 55°54' W 004°24'0 0.0 1014.9 10.9
2016-Sep-22 21:00N 55°54' W 004°24'0 0.0 1014.9 10.9
2016-Sep-22 20:00N 55°54' W 004°24'0 0.0 1014.1 13.0
2016-Sep-22 19:00N 55°54' W 004°24'0 0.0 1014.1 13.1
2016-Sep-22 18:00N 55°54' W 004°24'0 0.0 1014.3 13.6
2016-Sep-22 17:00N 55°54' W 004°24'0 0.0 1014.2 14.2
2016-Sep-22 16:00N 55°54' W 004°24'0 0.0 1014.3 14.5
2016-Sep-22 15:00N 55°54' W 004°24'0 0.0 1014.5 15.0
2016-Sep-22 12:00N 55°54' W 004°24'0 0.0 1015.5 14.4
2016-Sep-22 11:00N 55°54' W 004°24'0 0.0 1015.8 13.6
2016-Sep-22 10:00N 55°54' W 004°24'0 0.0 1015.7 12.8
2016-Sep-22 08:00N 55°54' W 004°24'0 0.0 1015.1 10.8
2016-Sep-22 07:00N 55°54' W 004°24'0 0.0 1014.6 9.9
2016-Sep-22 06:00N 55°54' W 004°24'0 0.0 1013.7 9.8
2016-Sep-22 05:00N 55°54' W 004°24'0 0.0 1013.3 10.5
2016-Sep-22 04:00N 55°54' W 004°24'0 0.0 1013.2 10.4
2016-Sep-22 03:00N 55°54' W 004°24'0 0.0 1013.2 10.6
2016-Sep-22 02:00N 55°54' W 004°24'0 0.0 1013.4 10.6
2016-Sep-22 01:00N 55°54' W 004°24'0 0.0 1013.3 10.8
2016-Sep-22 00:00N 55°54' W 004°24'0 0.0 1013.7 11.2
2016-Sep-21 23:00N 55°54' W 004°24'0 0.0 1013.7 11.4
2016-Sep-21 22:00N 55°54' W 004°24'0 0.0 1013.3 13.0
2016-Sep-21 21:00N 55°54' W 004°24'0 0.0 1013.0 13.5
2016-Sep-21 20:00N 55°54' W 004°24'0 0.0 1013.0 13.6
2016-Sep-21 19:00N 55°54' W 004°24'0 0.0 1012.5 13.9
2016-Sep-21 18:00N 55°54' W 004°24'0 0.0 1012.1 14.5
2016-Sep-21 17:00N 55°54' W 004°24'0 0.0 1011.7 14.6
2016-Sep-21 16:00N 55°54' W 004°24'0 0.0 1011.7 15.2
2016-Sep-21 15:00N 55°54' W 004°24'0 0.0 1012.0 16.4
2016-Sep-21 14:00N 55°54' W 004°24'0 0.0 1012.4 16.2
2016-Sep-21 12:00N 55°54' W 004°24'0 0.0 1013.2 15.9
2016-Sep-21 11:00N 55°54' W 004°24'0 0.0 1013.6 15.3
2016-Sep-21 10:00N 55°54' W 004°24'0 0.0 1014.2 14.6
2016-Sep-21 09:00N 55°54' W 004°24'0 0.0 1014.9 13.0
2016-Sep-21 08:00N 55°54' W 004°24'0 0.0 1015.0 11.4
2016-Sep-21 07:00N 55°54' W 004°24'0 0.0 1015.2 10.3
2016-Sep-21 06:00N 55°54' W 004°24'0 0.0 1015.2 9.9
2016-Sep-21 05:00N 55°54' W 004°24'0 0.0 1015.4 9.6
2016-Sep-21 04:00N 55°54' W 004°24'0 0.0 1016.1 9.5
2016-Sep-21 03:00N 55°54' W 004°24'0 0.0 1016.9 9.0
2016-Sep-21 02:00N 55°54' W 004°24'0 0.0 1017.4 8.4
2016-Sep-21 01:00N 55°54' W 004°24'0 0.0 1017.4 9.1
2016-Sep-21 00:00N 55°54' W 004°24'0 0.0 1018.0 9.5
2016-Sep-20 23:00N 55°54' W 004°24'0 0.0 1018.8 9.4
2016-Sep-20 22:00N 55°54' W 004°24'0 0.0 1019.0 10.3
2016-Sep-20 21:00N 55°54' W 004°24'0 0.0 1019.3 11.5
2016-Sep-20 20:00N 55°54' W 004°24'0 0.0 1019.3 12.2
2016-Sep-20 19:00N 55°54' W 004°24'0 0.0 1019.3 13.5
2016-Sep-20 18:00N 55°54' W 004°24'0 0.0 1019.1 14.1
2016-Sep-20 17:00N 55°54' W 004°24'0 0.0 1019.1 15.0
2016-Sep-20 16:00N 55°54' W 004°24'0 0.0 1019.1 14.9
2016-Sep-20 15:00N 55°54' W 004°24'0 0.0 1019.5 14.7
2016-Sep-20 14:00N 55°54' W 004°24'0 0.0 1020.0 15.0
2016-Sep-20 13:00N 55°54' W 004°24'0 0.0 1020.2 15.3
2016-Sep-20 12:00N 55°54' W 004°24'0 0.0 1020.7 14.5
2016-Sep-20 11:00N 55°54' W 004°24'0 0.0 1021.1 14.6
2016-Sep-20 10:00N 55°54' W 004°24'0 0.0 1021.5 14.0
2016-Sep-20 09:00N 55°54' W 004°24'0 0.0 1021.7 13.2
2016-Sep-20 08:00N 55°54' W 004°24'0 0.0 1021.6 13.3
2016-Sep-20 07:00N 55°54' W 004°24'0 0.0 1021.6 10.5
2016-Sep-20 06:00N 55°54' W 004°24'0 0.0 1021.4 10.3
2016-Sep-20 05:00N 55°54' W 004°24'0 0.0 1021.6 11.1
2016-Sep-20 04:00N 55°54' W 004°24'0 0.0 1021.5 11.8
2016-Sep-20 03:00N 55°54' W 004°24'0 0.0 1021.7 12.3
2016-Sep-20 02:00N 55°54' W 004°24'0 0.0 1022.1 12.3
2016-Sep-20 01:00N 55°54' W 004°24'0 0.0 1022.5 12.4
2016-Sep-20 00:00N 55°54' W 004°24'0 0.0 1022.9 12.7
2016-Sep-19 23:00N 55°54' W 004°24'0 0.0 1023.3 12.8
2016-Sep-19 22:00N 55°54' W 004°24'0 0.0 1023.5 12.9
2016-Sep-19 21:00N 55°54' W 004°24'0 0.0 1023.8 13.5
2016-Sep-19 20:00N 55°54' W 004°24'0 0.0 1024.2 13.6
2016-Sep-19 19:00N 55°54' W 004°24'0 0.0 1023.9 14.3
2016-Sep-19 18:00N 55°54' W 004°24'0 0.0 1023.6 14.3
2016-Sep-19 17:00N 55°54' W 004°24'0 0.0 1023.5 14.9
2016-Sep-19 16:00N 55°54' W 004°24'0 0.0 1023.4 15.4
2016-Sep-19 15:00N 55°54' W 004°24'0 0.0 1023.7 15.2
2016-Sep-19 14:00N 55°54' W 004°24'0 0.0 1023.9 15.7
2016-Sep-19 13:00N 55°54' W 004°24'0 0.0 1024.2 15.5
2016-Sep-19 12:00N 55°54' W 004°24'0 0.0 1024.7 13.8
2016-Sep-19 11:00N 55°54' W 004°24'0 0.0 1024.6 14.5
2016-Sep-19 10:00N 55°54' W 004°24'0 0.0 1024.7 14.7
2016-Sep-19 09:00N 55°54' W 004°24'0 0.0 1024.6 13.9
2016-Sep-19 08:00N 55°54' W 004°24'0 0.0 1024.3 12.2
2016-Sep-19 07:00N 55°54' W 004°24'0 0.0 1023.9 11.9
2016-Sep-19 06:00N 55°54' W 004°24'0 0.0 1023.4 11.5
2016-Sep-19 05:00N 55°54' W 004°24'0 0.0 1023.0 11.6
2016-Sep-19 04:00N 55°54' W 004°24'0 0.0 1022.7 11.6
2016-Sep-19 03:00N 55°54' W 004°24'0 0.0 1022.3 11.8
2016-Sep-19 02:00N 55°54' W 004°24'0 0.0 1022.1 11.8
2016-Sep-19 01:00N 55°54' W 004°24'0 0.0 1021.8 11.7
2016-Sep-19 00:00N 55°54' W 004°24'0 0.0 1021.5 12.0
2016-Sep-18 23:00N 55°54' W 004°24'0 0.0 1021.0 12.2
2016-Sep-18 22:00N 55°54' W 004°24'0 0.0 1020.5 12.6
2016-Sep-18 21:00N 55°54' W 004°24'0 0.0 1020.5 13.0
2016-Sep-18 20:00N 55°54' W 004°24'0 0.0 1020.3 13.4
2016-Sep-18 19:00N 55°54' W 004°24'0 0.0 1019.7 13.8
2016-Sep-18 18:00N 55°54' W 004°24'0 0.0 1019.1 14.0
2016-Sep-18 17:00N 55°54' W 004°24'0 0.0 1018.7 14.1
2016-Sep-18 16:00N 55°54' W 004°24'0 0.0 1018.5 14.2
2016-Sep-18 15:00N 55°54' W 004°24'0 0.0 1018.4 14.2
2016-Sep-18 14:00N 55°54' W 004°24'0 0.0 1018.4 14.4
2016-Sep-18 13:00N 55°54' W 004°24'0 0.0 1018.4 15.0
2016-Sep-18 12:00N 55°54' W 004°24'0 0.0 1018.3 16.0
2016-Sep-18 11:00N 55°54' W 004°24'0 0.0 1018.6 15.6
2016-Sep-18 10:00N 55°54' W 004°24'0 0.0 1019.1 14.7
2016-Sep-18 09:00N 55°54' W 004°24'0 0.0 1019.3 14.2
2016-Sep-18 08:00N 55°54' W 004°24'0 0.0 1019.6 13.3
2016-Sep-18 07:00N 55°54' W 004°24'0 0.0 1019.9 13.0
2016-Sep-18 06:00N 55°54' W 004°24'0 0.0 1019.9 12.7
2016-Sep-18 05:00N 55°54' W 004°24'0 0.0 1020.1 12.4
2016-Sep-18 04:00N 55°54' W 004°24'0 0.0 1020.2 12.4
2016-Sep-18 03:00N 55°54' W 004°24'0 0.0 1020.6 12.5
2016-Sep-18 02:00N 55°54' W 004°24'0 0.0 1021.1 12.2
2016-Sep-18 01:00N 55°54' W 004°24'0 0.0 1021.5 11.9
2016-Sep-18 00:00N 55°54' W 004°24'0 0.0 1022.1 11.5
2016-Sep-17 23:00N 55°54' W 004°24'0 0.0 1022.1 11.3
2016-Sep-17 22:00N 55°54' W 004°24'0 0.0 1022.1 11.8
2016-Sep-17 21:00N 55°54' W 004°24'0 0.0 1022.7 12.6
2016-Sep-17 20:00N 55°54' W 004°24'0 0.0 1023.0 12.9
2016-Sep-17 19:00N 55°54' W 004°24'0 0.0 1022.8 14.3
2016-Sep-17 18:00N 55°54' W 004°24'0 0.0 1022.4 15.7
2016-Sep-17 17:00N 55°54' W 004°24'0 0.0 1022.4 16.2
2016-Sep-17 16:00N 55°54' W 004°24'0 0.0 1022.4 16.5
2016-Sep-17 15:00N 55°54' W 004°24'0 0.0 1022.5 16.9
2016-Sep-17 14:00N 55°54' W 004°24'0 0.0 1022.7 17.0
2016-Sep-17 13:00N 55°54' W 004°24'0 0.0 1023.2 16.1
2016-Sep-17 12:00N 55°54' W 004°24'0 0.0 1023.5 15.2
2016-Sep-17 11:00N 55°54' W 004°24'0 0.0 1023.6 15.1
2016-Sep-17 10:00N 55°54' W 004°24'0 0.0 1023.6 13.8
2016-Sep-17 09:00N 55°54' W 004°24'0 0.0 1023.5 13.0
2016-Sep-17 08:00N 55°54' W 004°24'0 0.0 1023.4 11.7
2016-Sep-17 07:00N 55°54' W 004°24'0 0.0 1023.6 10.9
2016-Sep-17 06:00N 55°54' W 004°24'0 0.0 1023.4 9.8
2016-Sep-17 05:00N 55°54' W 004°24'0 0.0 1023.0 10.1
2016-Sep-17 04:00N 55°54' W 004°24'0 0.0 1022.5 9.9
2016-Sep-17 03:00N 55°54' W 004°24'0 0.0 1022.3 10.1
2016-Sep-17 02:00N 55°54' W 004°24'0 0.0 1021.9 11.0
2016-Sep-17 01:00N 55°54' W 004°24'0 0.0 1021.6 11.5
2016-Sep-17 00:00N 55°54' W 004°24'0 0.0 1020.9 11.7
2016-Sep-16 23:00N 55°54' W 004°24'0 0.0 1020.8 11.4
2016-Sep-16 22:00N 55°54' W 004°24'0 0.0 1020.3 12.1
2016-Sep-16 21:00N 55°54' W 004°24'0 0.0 1019.6 12.4
2016-Sep-16 20:00N 55°54' W 004°24'0 0.0 1019.5 12.7
2016-Sep-16 19:00N 55°54' W 004°24'0 0.0 1018.7 13.6
2016-Sep-16 18:00N 55°54' W 004°24'0 0.0 1018.1 14.7
2016-Sep-16 17:00N 55°54' W 004°24'0 0.0 1017.2 14.8
2016-Sep-16 16:00N 55°54' W 004°24'0 0.0 1016.5 16.0
2016-Sep-16 15:00N 55°54' W 004°24'0 0.0 1015.7 15.9
2016-Sep-16 14:00N 55°54' W 004°24'0 0.0 1015.2 16.2
2016-Sep-16 13:00N 55°54' W 004°24'0 0.0 1014.6 15.8
2016-Sep-16 12:00N 55°54' W 004°24'0 0.0 1014.3 16.0
2016-Sep-16 11:00N 55°54' W 004°24'0 0.0 1014.0 15.0
2016-Sep-16 10:00N 55°54' W 004°24'0 0.0 1013.6 14.5
2016-Sep-16 09:00N 55°54' W 004°24'0 0.0 1013.2 13.8
2016-Sep-16 08:00N 55°54' W 004°24'0 0.0 1013.4 12.6
2016-Sep-16 07:00N 55°54' W 004°24'0 0.0 1013.0 11.8
2016-Sep-16 06:00N 55°54' W 004°24'0 0.0 1012.5 12.0
2016-Sep-16 05:00N 55°54' W 004°24'0 0.0 1012.1 12.5
2016-Sep-16 03:00N 55°54' W 004°24'0 0.0 1011.3 13.0
2016-Sep-16 02:00N 55°54' W 004°24'   1011.2 12.8

Dump ship's entire track history